sensor_id;sensor_type;location;lat;lon;timestamp;P1;durP1;ratioP1;P2;durP2;ratioP2
21430;SDS011;10876;49.038;10.608;2022-10-18T00:01:28;1.45;;;1.30;;
21430;SDS011;10876;49.038;10.608;2022-10-18T00:03:55;6.00;;;2.15;;
21430;SDS011;10876;49.038;10.608;2022-10-18T00:06:23;5.78;;;1.88;;
21430;SDS011;10876;49.038;10.608;2022-10-18T00:08:50;3.10;;;1.70;;
21430;SDS011;10876;49.038;10.608;2022-10-18T00:11:17;4.63;;;1.42;;
21430;SDS011;10876;49.038;10.608;2022-10-18T00:13:44;5.43;;;1.45;;
21430;SDS011;10876;49.038;10.608;2022-10-18T00:16:12;2.80;;;1.50;;
21430;SDS011;10876;49.038;10.608;2022-10-18T00:18:40;3.53;;;1.63;;
21430;SDS011;10876;49.038;10.608;2022-10-18T00:21:09;2.38;;;1.80;;
21430;SDS011;10876;49.038;10.608;2022-10-18T00:23:39;4.38;;;1.50;;
21430;SDS011;10876;49.038;10.608;2022-10-18T00:26:09;2.40;;;1.90;;
21430;SDS011;10876;49.038;10.608;2022-10-18T00:28:38;2.45;;;2.00;;
21430;SDS011;10876;49.038;10.608;2022-10-18T00:31:12;2.60;;;2.08;;
21430;SDS011;10876;49.038;10.608;2022-10-18T00:33:40;3.28;;;2.13;;
21430;SDS011;10876;49.038;10.608;2022-10-18T00:36:08;4.88;;;2.67;;
21430;SDS011;10876;49.038;10.608;2022-10-18T00:38:35;3.00;;;2.00;;
21430;SDS011;10876;49.038;10.608;2022-10-18T00:41:05;2.83;;;2.05;;
21430;SDS011;10876;49.038;10.608;2022-10-18T00:43:49;4.32;;;2.10;;
21430;SDS011;10876;49.038;10.608;2022-10-18T00:46:17;5.50;;;2.38;;
21430;SDS011;10876;49.038;10.608;2022-10-18T00:48:44;6.97;;;2.40;;
21430;SDS011;10876;49.038;10.608;2022-10-18T00:51:11;4.20;;;2.35;;
21430;SDS011;10876;49.038;10.608;2022-10-18T00:53:39;6.53;;;2.80;;
21430;SDS011;10876;49.038;10.608;2022-10-18T00:56:08;3.13;;;2.38;;
21430;SDS011;10876;49.038;10.608;2022-10-18T00:58:35;10.68;;;2.78;;
21430;SDS011;10876;49.038;10.608;2022-10-18T01:01:02;2.97;;;2.22;;
21430;SDS011;10876;49.038;10.608;2022-10-18T01:03:29;4.78;;;2.00;;
21430;SDS011;10876;49.038;10.608;2022-10-18T01:05:57;3.97;;;1.92;;
21430;SDS011;10876;49.038;10.608;2022-10-18T01:08:31;4.25;;;2.00;;
21430;SDS011;10876;49.038;10.608;2022-10-18T01:11:17;5.57;;;2.30;;
21430;SDS011;10876;49.038;10.608;2022-10-18T01:14:06;7.93;;;1.83;;
21430;SDS011;10876;49.038;10.608;2022-10-18T01:16:45;4.07;;;1.60;;
21430;SDS011;10876;49.038;10.608;2022-10-18T01:19:24;3.17;;;1.52;;
21430;SDS011;10876;49.038;10.608;2022-10-18T01:22:20;3.58;;;1.60;;
21430;SDS011;10876;49.038;10.608;2022-10-18T01:27:46;6.15;;;1.67;;
21430;SDS011;10876;49.038;10.608;2022-10-18T01:33:14;5.45;;;1.80;;
21430;SDS011;10876;49.038;10.608;2022-10-18T01:35:48;1.80;;;1.70;;
21430;SDS011;10876;49.038;10.608;2022-10-18T01:38:19;2.90;;;2.10;;
21430;SDS011;10876;49.038;10.608;2022-10-18T01:40:57;2.28;;;2.03;;
21430;SDS011;10876;49.038;10.608;2022-10-18T01:43:33;5.47;;;2.78;;
21430;SDS011;10876;49.038;10.608;2022-10-18T01:46:52;6.28;;;2.53;;
21430;SDS011;10876;49.038;10.608;2022-10-18T01:49:21;6.07;;;2.92;;
21430;SDS011;10876;49.038;10.608;2022-10-18T01:51:49;3.03;;;2.65;;
21430;SDS011;10876;49.038;10.608;2022-10-18T01:54:17;8.25;;;3.20;;
21430;SDS011;10876;49.038;10.608;2022-10-18T01:56:49;4.63;;;3.42;;
21430;SDS011;10876;49.038;10.608;2022-10-18T01:59:27;4.90;;;2.95;;
21430;SDS011;10876;49.038;10.608;2022-10-18T02:02:16;4.78;;;3.17;;
21430;SDS011;10876;49.038;10.608;2022-10-18T02:04:50;5.13;;;3.28;;
21430;SDS011;10876;49.038;10.608;2022-10-18T02:07:22;5.72;;;3.97;;
21430;SDS011;10876;49.038;10.608;2022-10-18T02:09:58;4.97;;;3.53;;
21430;SDS011;10876;49.038;10.608;2022-10-18T02:12:33;4.85;;;3.40;;
21430;SDS011;10876;49.038;10.608;2022-10-18T02:15:02;4.93;;;3.55;;
21430;SDS011;10876;49.038;10.608;2022-10-18T02:17:35;3.88;;;2.97;;
21430;SDS011;10876;49.038;10.608;2022-10-18T02:20:05;14.45;;;3.63;;
21430;SDS011;10876;49.038;10.608;2022-10-18T02:22:34;9.65;;;3.75;;
21430;SDS011;10876;49.038;10.608;2022-10-18T02:25:04;6.53;;;3.38;;
21430;SDS011;10876;49.038;10.608;2022-10-18T02:27:38;5.57;;;2.97;;
21430;SDS011;10876;49.038;10.608;2022-10-18T02:30:06;4.75;;;3.05;;
21430;SDS011;10876;49.038;10.608;2022-10-18T02:32:35;4.65;;;2.97;;
21430;SDS011;10876;49.038;10.608;2022-10-18T02:35:06;7.32;;;3.30;;
21430;SDS011;10876;49.038;10.608;2022-10-18T02:37:39;5.47;;;2.83;;
21430;SDS011;10876;49.038;10.608;2022-10-18T02:40:08;6.65;;;3.00;;
21430;SDS011;10876;49.038;10.608;2022-10-18T02:42:37;6.13;;;2.80;;
21430;SDS011;10876;49.038;10.608;2022-10-18T02:45:09;7.63;;;2.97;;
21430;SDS011;10876;49.038;10.608;2022-10-18T02:47:36;4.38;;;3.15;;
21430;SDS011;10876;49.038;10.608;2022-10-18T02:50:05;7.10;;;3.15;;
21430;SDS011;10876;49.038;10.608;2022-10-18T02:52:31;5.78;;;3.28;;
21430;SDS011;10876;49.038;10.608;2022-10-18T02:54:58;4.50;;;3.50;;
21430;SDS011;10876;49.038;10.608;2022-10-18T02:57:25;6.35;;;3.42;;
21430;SDS011;10876;49.038;10.608;2022-10-18T02:59:52;12.15;;;3.50;;
21430;SDS011;10876;49.038;10.608;2022-10-18T03:02:18;19.02;;;3.97;;
21430;SDS011;10876;49.038;10.608;2022-10-18T03:04:46;4.18;;;3.30;;
21430;SDS011;10876;49.038;10.608;2022-10-18T03:07:13;5.20;;;3.25;;
21430;SDS011;10876;49.038;10.608;2022-10-18T03:09:40;6.15;;;3.85;;
21430;SDS011;10876;49.038;10.608;2022-10-18T03:12:06;6.53;;;3.85;;
21430;SDS011;10876;49.038;10.608;2022-10-18T03:14:33;6.40;;;3.30;;
21430;SDS011;10876;49.038;10.608;2022-10-18T03:17:00;6.80;;;3.10;;
21430;SDS011;10876;49.038;10.608;2022-10-18T03:19:26;23.80;;;3.45;;
21430;SDS011;10876;49.038;10.608;2022-10-18T03:21:55;7.32;;;3.33;;
21430;SDS011;10876;49.038;10.608;2022-10-18T03:24:21;17.85;;;3.40;;
21430;SDS011;10876;49.038;10.608;2022-10-18T03:26:48;11.93;;;2.95;;
21430;SDS011;10876;49.038;10.608;2022-10-18T03:29:15;7.45;;;3.20;;
21430;SDS011;10876;49.038;10.608;2022-10-18T03:31:42;6.28;;;3.15;;
21430;SDS011;10876;49.038;10.608;2022-10-18T03:34:08;13.60;;;3.53;;
21430;SDS011;10876;49.038;10.608;2022-10-18T03:36:35;15.27;;;4.10;;
21430;SDS011;10876;49.038;10.608;2022-10-18T03:39:04;8.55;;;3.45;;
21430;SDS011;10876;49.038;10.608;2022-10-18T03:41:30;5.30;;;3.78;;
21430;SDS011;10876;49.038;10.608;2022-10-18T03:43:57;5.55;;;3.53;;
21430;SDS011;10876;49.038;10.608;2022-10-18T03:46:24;7.20;;;3.65;;
21430;SDS011;10876;49.038;10.608;2022-10-18T03:48:51;5.47;;;3.58;;
21430;SDS011;10876;49.038;10.608;2022-10-18T03:51:17;6.13;;;3.95;;
21430;SDS011;10876;49.038;10.608;2022-10-18T03:53:44;6.57;;;4.28;;
21430;SDS011;10876;49.038;10.608;2022-10-18T03:56:12;6.55;;;4.05;;
21430;SDS011;10876;49.038;10.608;2022-10-18T03:58:39;5.07;;;3.92;;
21430;SDS011;10876;49.038;10.608;2022-10-18T04:01:05;6.93;;;3.75;;
21430;SDS011;10876;49.038;10.608;2022-10-18T04:03:32;9.32;;;3.80;;
21430;SDS011;10876;49.038;10.608;2022-10-18T04:05:59;7.15;;;3.90;;
21430;SDS011;10876;49.038;10.608;2022-10-18T04:08:27;13.85;;;4.68;;
21430;SDS011;10876;49.038;10.608;2022-10-18T04:10:54;14.35;;;4.70;;
21430;SDS011;10876;49.038;10.608;2022-10-18T04:13:22;7.22;;;4.65;;
21430;SDS011;10876;49.038;10.608;2022-10-18T04:15:49;10.27;;;4.68;;
21430;SDS011;10876;49.038;10.608;2022-10-18T04:18:16;7.18;;;4.93;;
21430;SDS011;10876;49.038;10.608;2022-10-18T04:20:42;8.68;;;5.53;;
21430;SDS011;10876;49.038;10.608;2022-10-18T04:23:09;8.57;;;5.47;;
21430;SDS011;10876;49.038;10.608;2022-10-18T04:25:36;10.38;;;5.80;;
21430;SDS011;10876;49.038;10.608;2022-10-18T04:28:02;7.85;;;5.85;;
21430;SDS011;10876;49.038;10.608;2022-10-18T04:30:30;9.90;;;6.68;;
21430;SDS011;10876;49.038;10.608;2022-10-18T04:32:57;9.13;;;6.30;;
21430;SDS011;10876;49.038;10.608;2022-10-18T04:35:24;9.05;;;5.95;;
21430;SDS011;10876;49.038;10.608;2022-10-18T04:37:52;7.03;;;5.65;;
21430;SDS011;10876;49.038;10.608;2022-10-18T04:40:19;7.10;;;5.32;;
21430;SDS011;10876;49.038;10.608;2022-10-18T04:42:46;6.82;;;5.22;;
21430;SDS011;10876;49.038;10.608;2022-10-18T04:45:12;7.05;;;5.00;;
21430;SDS011;10876;49.038;10.608;2022-10-18T04:47:41;7.63;;;5.20;;
21430;SDS011;10876;49.038;10.608;2022-10-18T04:50:07;7.32;;;5.03;;
21430;SDS011;10876;49.038;10.608;2022-10-18T04:52:34;9.38;;;5.72;;
21430;SDS011;10876;49.038;10.608;2022-10-18T04:55:01;6.20;;;4.97;;
21430;SDS011;10876;49.038;10.608;2022-10-18T04:57:28;6.40;;;4.60;;
21430;SDS011;10876;49.038;10.608;2022-10-18T04:59:54;7.10;;;4.70;;
21430;SDS011;10876;49.038;10.608;2022-10-18T05:02:21;6.20;;;4.40;;
21430;SDS011;10876;49.038;10.608;2022-10-18T05:04:49;6.53;;;4.60;;
21430;SDS011;10876;49.038;10.608;2022-10-18T05:07:16;7.28;;;4.63;;
21430;SDS011;10876;49.038;10.608;2022-10-18T05:09:42;6.32;;;4.68;;
21430;SDS011;10876;49.038;10.608;2022-10-18T05:12:09;6.75;;;3.95;;
21430;SDS011;10876;49.038;10.608;2022-10-18T05:14:36;5.57;;;4.50;;
21430;SDS011;10876;49.038;10.608;2022-10-18T05:17:02;5.32;;;4.20;;
21430;SDS011;10876;49.038;10.608;2022-10-18T05:19:29;5.60;;;4.03;;
21430;SDS011;10876;49.038;10.608;2022-10-18T05:21:57;6.43;;;4.10;;
21430;SDS011;10876;49.038;10.608;2022-10-18T05:24:24;6.35;;;4.18;;
21430;SDS011;10876;49.038;10.608;2022-10-18T05:26:51;8.75;;;4.10;;
21430;SDS011;10876;49.038;10.608;2022-10-18T05:29:17;7.85;;;4.18;;
21430;SDS011;10876;49.038;10.608;2022-10-18T05:31:44;6.28;;;4.00;;
21430;SDS011;10876;49.038;10.608;2022-10-18T05:34:11;7.30;;;4.10;;
21430;SDS011;10876;49.038;10.608;2022-10-18T05:36:37;8.35;;;3.78;;
21430;SDS011;10876;49.038;10.608;2022-10-18T05:39:05;5.22;;;3.80;;
21430;SDS011;10876;49.038;10.608;2022-10-18T05:41:32;8.40;;;4.18;;
21430;SDS011;10876;49.038;10.608;2022-10-18T05:44:01;9.65;;;4.15;;
21430;SDS011;10876;49.038;10.608;2022-10-18T05:46:29;6.68;;;4.18;;
21430;SDS011;10876;49.038;10.608;2022-10-18T05:48:56;7.32;;;4.03;;
21430;SDS011;10876;49.038;10.608;2022-10-18T05:51:22;6.53;;;4.10;;
21430;SDS011;10876;49.038;10.608;2022-10-18T05:53:49;7.72;;;4.38;;
21430;SDS011;10876;49.038;10.608;2022-10-18T05:56:18;6.15;;;4.15;;
21430;SDS011;10876;49.038;10.608;2022-10-18T05:58:48;7.15;;;4.43;;
21430;SDS011;10876;49.038;10.608;2022-10-18T06:01:15;7.90;;;4.60;;
21430;SDS011;10876;49.038;10.608;2022-10-18T06:03:42;10.00;;;4.20;;
21430;SDS011;10876;49.038;10.608;2022-10-18T06:06:09;5.43;;;4.30;;
21430;SDS011;10876;49.038;10.608;2022-10-18T06:08:38;6.05;;;4.40;;
21430;SDS011;10876;49.038;10.608;2022-10-18T06:11:06;7.82;;;4.63;;
21430;SDS011;10876;49.038;10.608;2022-10-18T06:13:38;7.85;;;4.43;;
21430;SDS011;10876;49.038;10.608;2022-10-18T06:16:05;7.53;;;4.40;;
21430;SDS011;10876;49.038;10.608;2022-10-18T06:18:32;7.80;;;4.47;;
21430;SDS011;10876;49.038;10.608;2022-10-18T06:20:59;9.25;;;5.07;;
21430;SDS011;10876;49.038;10.608;2022-10-18T06:23:25;7.45;;;4.75;;
21430;SDS011;10876;49.038;10.608;2022-10-18T06:25:53;7.97;;;4.55;;
21430;SDS011;10876;49.038;10.608;2022-10-18T06:28:23;10.57;;;4.97;;
21430;SDS011;10876;49.038;10.608;2022-10-18T06:30:51;10.68;;;5.53;;
21430;SDS011;10876;49.038;10.608;2022-10-18T06:33:18;8.80;;;4.78;;
21430;SDS011;10876;49.038;10.608;2022-10-18T06:35:52;6.78;;;5.20;;
21430;SDS011;10876;49.038;10.608;2022-10-18T06:38:19;9.35;;;5.85;;
21430;SDS011;10876;49.038;10.608;2022-10-18T06:40:46;10.02;;;6.00;;
21430;SDS011;10876;49.038;10.608;2022-10-18T06:43:13;11.73;;;5.95;;
21430;SDS011;10876;49.038;10.608;2022-10-18T06:45:39;8.48;;;5.78;;
21430;SDS011;10876;49.038;10.608;2022-10-18T06:48:07;8.60;;;5.30;;
21430;SDS011;10876;49.038;10.608;2022-10-18T06:50:34;10.45;;;5.07;;
21430;SDS011;10876;49.038;10.608;2022-10-18T06:53:01;8.23;;;5.15;;
21430;SDS011;10876;49.038;10.608;2022-10-18T06:55:30;10.38;;;5.75;;
21430;SDS011;10876;49.038;10.608;2022-10-18T06:57:57;7.05;;;5.55;;
21430;SDS011;10876;49.038;10.608;2022-10-18T07:00:23;8.23;;;5.97;;
21430;SDS011;10876;49.038;10.608;2022-10-18T07:02:50;11.55;;;6.38;;
21430;SDS011;10876;49.038;10.608;2022-10-18T07:05:18;10.63;;;7.53;;
21430;SDS011;10876;49.038;10.608;2022-10-18T07:07:45;13.57;;;7.22;;
21430;SDS011;10876;49.038;10.608;2022-10-18T07:10:11;11.55;;;7.32;;
21430;SDS011;10876;49.038;10.608;2022-10-18T07:12:38;11.70;;;7.93;;
21430;SDS011;10876;49.038;10.608;2022-10-18T07:15:05;10.30;;;7.05;;
21430;SDS011;10876;49.038;10.608;2022-10-18T07:17:32;12.10;;;7.20;;
21430;SDS011;10876;49.038;10.608;2022-10-18T07:19:59;10.00;;;7.22;;
21430;SDS011;10876;49.038;10.608;2022-10-18T07:22:27;11.50;;;7.22;;
21430;SDS011;10876;49.038;10.608;2022-10-18T07:24:53;11.77;;;7.00;;
21430;SDS011;10876;49.038;10.608;2022-10-18T07:27:20;9.38;;;6.57;;
21430;SDS011;10876;49.038;10.608;2022-10-18T07:29:47;11.88;;;7.28;;
21430;SDS011;10876;49.038;10.608;2022-10-18T07:32:14;15.77;;;7.97;;
21430;SDS011;10876;49.038;10.608;2022-10-18T07:34:40;14.00;;;8.45;;
21430;SDS011;10876;49.038;10.608;2022-10-18T07:37:07;13.40;;;8.18;;
21430;SDS011;10876;49.038;10.608;2022-10-18T07:39:35;12.25;;;7.88;;
21430;SDS011;10876;49.038;10.608;2022-10-18T07:42:02;12.20;;;7.80;;
21430;SDS011;10876;49.038;10.608;2022-10-18T07:44:28;14.18;;;7.70;;
21430;SDS011;10876;49.038;10.608;2022-10-18T07:46:55;10.98;;;7.40;;
21430;SDS011;10876;49.038;10.608;2022-10-18T07:49:22;11.05;;;7.50;;
21430;SDS011;10876;49.038;10.608;2022-10-18T07:51:49;10.27;;;6.63;;
21430;SDS011;10876;49.038;10.608;2022-10-18T07:54:15;11.68;;;6.90;;
21430;SDS011;10876;49.038;10.608;2022-10-18T07:56:43;8.00;;;6.68;;
21430;SDS011;10876;49.038;10.608;2022-10-18T07:59:11;11.95;;;7.20;;
21430;SDS011;10876;49.038;10.608;2022-10-18T08:01:38;17.85;;;6.90;;
21430;SDS011;10876;49.038;10.608;2022-10-18T08:04:05;8.40;;;6.75;;
21430;SDS011;10876;49.038;10.608;2022-10-18T08:06:31;11.95;;;6.30;;
21430;SDS011;10876;49.038;10.608;2022-10-18T08:08:58;10.18;;;6.32;;
21430;SDS011;10876;49.038;10.608;2022-10-18T08:11:25;9.07;;;6.47;;
21430;SDS011;10876;49.038;10.608;2022-10-18T08:13:53;10.98;;;6.55;;
21430;SDS011;10876;49.038;10.608;2022-10-18T08:16:21;10.98;;;6.18;;
21430;SDS011;10876;49.038;10.608;2022-10-18T08:18:49;10.68;;;6.05;;
21430;SDS011;10876;49.038;10.608;2022-10-18T08:21:17;8.77;;;5.95;;
21430;SDS011;10876;49.038;10.608;2022-10-18T08:23:45;10.90;;;6.35;;
21430;SDS011;10876;49.038;10.608;2022-10-18T08:26:13;8.90;;;5.90;;
21430;SDS011;10876;49.038;10.608;2022-10-18T08:28:41;8.43;;;5.50;;
21430;SDS011;10876;49.038;10.608;2022-10-18T08:31:11;7.57;;;5.68;;
21430;SDS011;10876;49.038;10.608;2022-10-18T08:33:41;11.32;;;5.10;;
21430;SDS011;10876;49.038;10.608;2022-10-18T08:36:09;10.65;;;5.72;;
21430;SDS011;10876;49.038;10.608;2022-10-18T08:38:38;7.82;;;5.47;;
21430;SDS011;10876;49.038;10.608;2022-10-18T08:41:13;10.80;;;6.03;;
21430;SDS011;10876;49.038;10.608;2022-10-18T08:43:49;10.65;;;5.22;;
21430;SDS011;10876;49.038;10.608;2022-10-18T08:46:25;7.57;;;5.28;;
21430;SDS011;10876;49.038;10.608;2022-10-18T08:48:53;9.52;;;5.80;;
21430;SDS011;10876;49.038;10.608;2022-10-18T08:51:23;7.60;;;5.20;;
21430;SDS011;10876;49.038;10.608;2022-10-18T08:53:55;7.68;;;4.93;;
21430;SDS011;10876;49.038;10.608;2022-10-18T08:56:29;10.05;;;5.40;;
21430;SDS011;10876;49.038;10.608;2022-10-18T08:58:57;7.20;;;4.80;;
21430;SDS011;10876;49.038;10.608;2022-10-18T09:01:26;14.30;;;5.45;;
21430;SDS011;10876;49.038;10.608;2022-10-18T09:04:08;8.07;;;4.78;;
21430;SDS011;10876;49.038;10.608;2022-10-18T09:06:50;10.48;;;5.22;;
21430;SDS011;10876;49.038;10.608;2022-10-18T09:09:31;10.82;;;5.78;;
21430;SDS011;10876;49.038;10.608;2022-10-18T09:12:07;9.32;;;4.28;;
21430;SDS011;10876;49.038;10.608;2022-10-18T09:17:45;6.40;;;4.07;;
21430;SDS011;10876;49.038;10.608;2022-10-18T09:20:22;11.02;;;4.80;;
21430;SDS011;10876;49.038;10.608;2022-10-18T09:22:51;7.53;;;4.03;;
21430;SDS011;10876;49.038;10.608;2022-10-18T09:25:21;4.82;;;3.30;;
21430;SDS011;10876;49.038;10.608;2022-10-18T09:27:51;6.03;;;3.70;;
21430;SDS011;10876;49.038;10.608;2022-10-18T09:30:23;8.10;;;3.65;;
21430;SDS011;10876;49.038;10.608;2022-10-18T09:33:02;6.57;;;3.42;;
21430;SDS011;10876;49.038;10.608;2022-10-18T09:35:41;4.97;;;3.30;;
21430;SDS011;10876;49.038;10.608;2022-10-18T09:38:15;7.65;;;3.38;;
21430;SDS011;10876;49.038;10.608;2022-10-18T09:40:49;4.50;;;2.53;;
21430;SDS011;10876;49.038;10.608;2022-10-18T09:43:20;4.60;;;2.80;;
21430;SDS011;10876;49.038;10.608;2022-10-18T09:45:50;6.70;;;2.50;;
21430;SDS011;10876;49.038;10.608;2022-10-18T09:48:20;2.45;;;2.20;;
21430;SDS011;10876;49.038;10.608;2022-10-18T09:50:53;10.75;;;2.72;;
21430;SDS011;10876;49.038;10.608;2022-10-18T09:53:25;10.07;;;2.63;;
21430;SDS011;10876;49.038;10.608;2022-10-18T09:55:58;4.20;;;2.70;;
21430;SDS011;10876;49.038;10.608;2022-10-18T09:58:29;5.40;;;2.15;;
21430;SDS011;10876;49.038;10.608;2022-10-18T10:01:09;6.13;;;2.70;;
21430;SDS011;10876;49.038;10.608;2022-10-18T10:03:39;7.90;;;2.10;;
21430;SDS011;10876;49.038;10.608;2022-10-18T10:06:19;5.38;;;2.97;;
21430;SDS011;10876;49.038;10.608;2022-10-18T10:08:53;4.00;;;2.40;;
21430;SDS011;10876;49.038;10.608;2022-10-18T10:11:32;4.53;;;2.58;;
21430;SDS011;10876;49.038;10.608;2022-10-18T10:16:48;5.80;;;2.53;;
21430;SDS011;10876;49.038;10.608;2022-10-18T10:19:19;2.75;;;2.28;;
21430;SDS011;10876;49.038;10.608;2022-10-18T10:21:52;6.80;;;2.30;;
21430;SDS011;10876;49.038;10.608;2022-10-18T10:24:24;4.72;;;2.42;;
21430;SDS011;10876;49.038;10.608;2022-10-18T10:26:58;5.20;;;2.55;;
21430;SDS011;10876;49.038;10.608;2022-10-18T10:32:22;9.40;;;3.10;;
21430;SDS011;10876;49.038;10.608;2022-10-18T10:34:52;4.15;;;2.50;;
21430;SDS011;10876;49.038;10.608;2022-10-18T10:37:24;4.78;;;2.40;;
21430;SDS011;10876;49.038;10.608;2022-10-18T10:40:15;5.68;;;2.47;;
21430;SDS011;10876;49.038;10.608;2022-10-18T10:42:53;9.98;;;2.97;;
21430;SDS011;10876;49.038;10.608;2022-10-18T10:45:27;4.05;;;2.60;;
21430;SDS011;10876;49.038;10.608;2022-10-18T10:48:00;6.30;;;2.58;;
21430;SDS011;10876;49.038;10.608;2022-10-18T10:50:32;4.68;;;2.28;;
21430;SDS011;10876;49.038;10.608;2022-10-18T10:53:27;11.80;;;2.50;;
21430;SDS011;10876;49.038;10.608;2022-10-18T10:55:57;6.13;;;2.30;;
21430;SDS011;10876;49.038;10.608;2022-10-18T10:58:25;4.32;;;2.17;;
21430;SDS011;10876;49.038;10.608;2022-10-18T11:00:55;3.78;;;2.47;;
21430;SDS011;10876;49.038;10.608;2022-10-18T11:03:22;4.82;;;2.50;;
21430;SDS011;10876;49.038;10.608;2022-10-18T11:05:52;3.97;;;2.58;;
21430;SDS011;10876;49.038;10.608;2022-10-18T11:08:22;7.72;;;2.40;;
21430;SDS011;10876;49.038;10.608;2022-10-18T11:10:57;4.13;;;2.13;;
21430;SDS011;10876;49.038;10.608;2022-10-18T11:13:32;7.22;;;2.53;;
21430;SDS011;10876;49.038;10.608;2022-10-18T11:16:12;4.20;;;2.80;;
21430;SDS011;10876;49.038;10.608;2022-10-18T11:18:43;4.47;;;2.30;;
21430;SDS011;10876;49.038;10.608;2022-10-18T11:21:16;5.50;;;2.65;;
21430;SDS011;10876;49.038;10.608;2022-10-18T11:23:47;4.53;;;2.28;;
21430;SDS011;10876;49.038;10.608;2022-10-18T11:26:26;8.60;;;3.00;;
21430;SDS011;10876;49.038;10.608;2022-10-18T11:29:09;3.70;;;2.42;;
21430;SDS011;10876;49.038;10.608;2022-10-18T11:31:48;4.53;;;2.67;;
21430;SDS011;10876;49.038;10.608;2022-10-18T11:34:31;7.65;;;2.42;;
21430;SDS011;10876;49.038;10.608;2022-10-18T11:37:18;3.75;;;2.55;;
21430;SDS011;10876;49.038;10.608;2022-10-18T11:39:58;6.18;;;2.35;;
21430;SDS011;10876;49.038;10.608;2022-10-18T11:42:35;3.90;;;2.47;;
21430;SDS011;10876;49.038;10.608;2022-10-18T11:45:12;4.93;;;2.95;;
21430;SDS011;10876;49.038;10.608;2022-10-18T11:47:51;5.00;;;2.50;;
21430;SDS011;10876;49.038;10.608;2022-10-18T11:50:24;6.70;;;2.85;;
21430;SDS011;10876;49.038;10.608;2022-10-18T11:53:03;5.63;;;2.97;;
21430;SDS011;10876;49.038;10.608;2022-10-18T11:55:40;4.90;;;2.45;;
21430;SDS011;10876;49.038;10.608;2022-10-18T11:58:18;5.03;;;3.00;;
21430;SDS011;10876;49.038;10.608;2022-10-18T12:00:57;5.15;;;2.88;;
21430;SDS011;10876;49.038;10.608;2022-10-18T12:03:37;5.35;;;2.90;;
21430;SDS011;10876;49.038;10.608;2022-10-18T12:06:17;5.93;;;3.10;;
21430;SDS011;10876;49.038;10.608;2022-10-18T12:08:48;7.03;;;3.17;;
21430;SDS011;10876;49.038;10.608;2022-10-18T12:11:18;5.07;;;3.20;;
21430;SDS011;10876;49.038;10.608;2022-10-18T12:13:50;7.00;;;2.85;;
21430;SDS011;10876;49.038;10.608;2022-10-18T12:16:21;6.18;;;3.17;;
21430;SDS011;10876;49.038;10.608;2022-10-18T12:18:51;5.95;;;2.92;;
21430;SDS011;10876;49.038;10.608;2022-10-18T12:21:20;5.30;;;2.90;;
21430;SDS011;10876;49.038;10.608;2022-10-18T12:23:51;4.75;;;3.15;;
21430;SDS011;10876;49.038;10.608;2022-10-18T12:26:20;4.93;;;3.10;;
21430;SDS011;10876;49.038;10.608;2022-10-18T12:28:50;9.10;;;3.15;;
21430;SDS011;10876;49.038;10.608;2022-10-18T12:31:29;7.75;;;2.97;;
21430;SDS011;10876;49.038;10.608;2022-10-18T12:34:00;6.03;;;2.80;;
21430;SDS011;10876;49.038;10.608;2022-10-18T12:36:48;8.52;;;2.78;;
21430;SDS011;10876;49.038;10.608;2022-10-18T12:39:24;5.25;;;2.88;;
21430;SDS011;10876;49.038;10.608;2022-10-18T12:41:54;6.78;;;2.60;;
21430;SDS011;10876;49.038;10.608;2022-10-18T12:44:23;4.32;;;2.60;;
21430;SDS011;10876;49.038;10.608;2022-10-18T12:46:55;5.88;;;2.47;;
21430;SDS011;10876;49.038;10.608;2022-10-18T12:49:26;6.95;;;2.90;;
21430;SDS011;10876;49.038;10.608;2022-10-18T12:51:55;4.30;;;2.60;;
21430;SDS011;10876;49.038;10.608;2022-10-18T12:54:26;5.35;;;2.60;;
21430;SDS011;10876;49.038;10.608;2022-10-18T12:56:55;4.20;;;2.63;;
21430;SDS011;10876;49.038;10.608;2022-10-18T12:59:38;4.85;;;2.70;;
21430;SDS011;10876;49.038;10.608;2022-10-18T13:02:19;4.60;;;2.30;;
21430;SDS011;10876;49.038;10.608;2022-10-18T13:04:48;3.55;;;2.33;;
21430;SDS011;10876;49.038;10.608;2022-10-18T13:07:31;5.95;;;2.40;;
21430;SDS011;10876;49.038;10.608;2022-10-18T13:16:06;4.55;;;2.55;;
21430;SDS011;10876;49.038;10.608;2022-10-18T13:18:45;4.80;;;2.60;;
21430;SDS011;10876;49.038;10.608;2022-10-18T13:21:19;7.28;;;2.47;;
21430;SDS011;10876;49.038;10.608;2022-10-18T13:24:08;4.55;;;2.42;;
21430;SDS011;10876;49.038;10.608;2022-10-18T13:26:48;5.53;;;2.70;;
21430;SDS011;10876;49.038;10.608;2022-10-18T13:29:38;4.68;;;2.40;;
21430;SDS011;10876;49.038;10.608;2022-10-18T13:32:23;3.72;;;2.50;;
21430;SDS011;10876;49.038;10.608;2022-10-18T13:34:56;6.90;;;2.65;;
21430;SDS011;10876;49.038;10.608;2022-10-18T13:37:23;7.25;;;2.60;;
21430;SDS011;10876;49.038;10.608;2022-10-18T13:39:51;7.18;;;2.72;;
21430;SDS011;10876;49.038;10.608;2022-10-18T13:42:49;5.57;;;2.35;;
21430;SDS011;10876;49.038;10.608;2022-10-18T13:54:27;4.32;;;2.10;;
21430;SDS011;10876;49.038;10.608;2022-10-18T13:57:16;6.25;;;2.55;;
21430;SDS011;10876;49.038;10.608;2022-10-18T14:03:10;9.25;;;2.38;;
21430;SDS011;10876;49.038;10.608;2022-10-18T14:05:49;3.72;;;1.98;;
21430;SDS011;10876;49.038;10.608;2022-10-18T14:08:19;3.15;;;1.80;;
21430;SDS011;10876;49.038;10.608;2022-10-18T14:10:53;3.92;;;2.15;;
21430;SDS011;10876;49.038;10.608;2022-10-18T14:13:25;2.78;;;1.83;;
21430;SDS011;10876;49.038;10.608;2022-10-18T14:16:00;3.22;;;1.67;;
21430;SDS011;10876;49.038;10.608;2022-10-18T14:18:33;1.90;;;1.58;;
21430;SDS011;10876;49.038;10.608;2022-10-18T14:21:04;3.55;;;1.52;;
21430;SDS011;10876;49.038;10.608;2022-10-18T14:23:36;2.28;;;1.70;;
21430;SDS011;10876;49.038;10.608;2022-10-18T14:26:10;2.05;;;1.70;;
21430;SDS011;10876;49.038;10.608;2022-10-18T14:28:39;2.63;;;1.70;;
21430;SDS011;10876;49.038;10.608;2022-10-18T14:31:11;2.80;;;2.03;;
21430;SDS011;10876;49.038;10.608;2022-10-18T14:33:40;3.88;;;2.08;;
21430;SDS011;10876;49.038;10.608;2022-10-18T14:36:10;2.60;;;1.80;;
21430;SDS011;10876;49.038;10.608;2022-10-18T14:38:43;3.22;;;2.03;;
21430;SDS011;10876;49.038;10.608;2022-10-18T14:41:14;3.97;;;2.33;;
21430;SDS011;10876;49.038;10.608;2022-10-18T14:43:41;3.00;;;2.13;;
21430;SDS011;10876;49.038;10.608;2022-10-18T14:46:18;5.63;;;2.20;;
21430;SDS011;10876;49.038;10.608;2022-10-18T14:48:53;3.78;;;2.10;;
21430;SDS011;10876;49.038;10.608;2022-10-18T14:51:22;4.57;;;2.20;;
21430;SDS011;10876;49.038;10.608;2022-10-18T14:53:49;3.67;;;2.22;;
21430;SDS011;10876;49.038;10.608;2022-10-18T14:56:24;3.10;;;2.47;;
21430;SDS011;10876;49.038;10.608;2022-10-18T14:58:53;3.55;;;2.10;;
21430;SDS011;10876;49.038;10.608;2022-10-18T15:01:23;5.15;;;2.47;;
21430;SDS011;10876;49.038;10.608;2022-10-18T15:03:56;3.45;;;2.80;;
21430;SDS011;10876;49.038;10.608;2022-10-18T15:06:24;3.60;;;2.83;;
21430;SDS011;10876;49.038;10.608;2022-10-18T15:08:52;5.55;;;2.88;;
21430;SDS011;10876;49.038;10.608;2022-10-18T15:11:20;3.70;;;2.53;;
21430;SDS011;10876;49.038;10.608;2022-10-18T15:13:49;3.22;;;2.50;;
21430;SDS011;10876;49.038;10.608;2022-10-18T15:16:18;6.35;;;3.10;;
21430;SDS011;10876;49.038;10.608;2022-10-18T15:21:53;8.90;;;4.20;;
21430;SDS011;10876;49.038;10.608;2022-10-18T15:24:27;8.10;;;4.43;;
21430;SDS011;10876;49.038;10.608;2022-10-18T15:26:56;4.45;;;2.47;;
21430;SDS011;10876;49.038;10.608;2022-10-18T15:29:30;6.15;;;3.33;;
21430;SDS011;10876;49.038;10.608;2022-10-18T15:32:03;5.00;;;3.30;;